Adamant, Vermont
Current Conditions -  °F | °C
As of 12:51 AM on Saturday 25 Oct 2014 (Local Time) from KMPV Reporting Station
Overcast Overcast  
Wind Chill:   Ceiling: 10000
Heat Index:   Visibility: 10mi
Dew Point:   Wind: 3mph
Humidity: 93%   Direction: 180°S
Pressure: 29.82"   Gusts: NA
Location:  44.33°N, 72.5°W
Report Text: KMPV 250451Z AUTO 18003KT 10SM OVC100 02/01 A2982 RMK AO2 SLP109 T00220011 400670017 $
Loading
Personal Weather Stations






























Interactive Weather Map
Tropical Storm Tracking
New forecast layout! Learn more

10-Day Weather Forecast

Advertisements
Track Severe Weather on mobile